createdAt,value
2023-03-22T00:00:17.694Z,18.60
2023-03-22T00:02:46.467Z,17.70
2023-03-22T00:05:15.074Z,19.37
2023-03-22T00:07:43.798Z,21.10
2023-03-22T00:10:12.658Z,18.90
2023-03-22T00:12:42.607Z,20.00
2023-03-22T00:15:12.335Z,18.30
2023-03-22T00:17:42.157Z,20.53
2023-03-22T00:20:11.877Z,18.03
2023-03-22T00:22:40.792Z,19.10
2023-03-22T00:25:09.719Z,19.70
2023-03-22T00:27:38.270Z,17.90
2023-03-22T00:30:11.772Z,18.47
2023-03-22T00:32:40.419Z,25.63
2023-03-22T00:35:10.154Z,22.80
2023-03-22T00:37:39.737Z,22.43
2023-03-22T00:40:13.321Z,18.80
2023-03-22T00:42:42.850Z,20.63
2023-03-22T00:45:14.178Z,20.27
2023-03-22T00:47:42.891Z,22.10
2023-03-22T00:50:12.146Z,32.17
2023-03-22T00:52:40.762Z,17.17
2023-03-22T00:55:09.833Z,22.83
2023-03-22T00:57:38.439Z,22.33
2023-03-22T01:00:11.834Z,25.23
2023-03-22T01:02:42.693Z,17.77
2023-03-22T01:05:16.322Z,21.33
2023-03-22T01:07:45.806Z,20.50
2023-03-22T01:10:14.644Z,22.90
2023-03-22T01:12:43.410Z,18.80
2023-03-22T01:15:12.975Z,25.90
2023-03-22T01:17:43.372Z,21.40
2023-03-22T01:20:13.225Z,19.90
2023-03-22T01:22:42.186Z,23.03
2023-03-22T01:25:11.758Z,21.60
2023-03-22T01:27:40.381Z,24.10
2023-03-22T01:30:10.562Z,24.07
2023-03-22T01:32:40.077Z,22.70
2023-03-22T01:35:11.483Z,21.00
2023-03-22T01:37:41.318Z,23.30
2023-03-22T01:40:13.091Z,19.77
2023-03-22T01:42:42.276Z,19.77
2023-03-22T01:45:38.838Z,20.47
2023-03-22T01:48:22.109Z,21.10
2023-03-22T01:50:58.852Z,23.27
2023-03-22T01:53:29.756Z,21.90
2023-03-22T01:55:59.694Z,19.90
2023-03-22T01:58:37.307Z,21.70
2023-03-22T02:01:09.540Z,26.33
2023-03-22T02:03:51.699Z,22.53
2023-03-22T02:06:22.744Z,23.33
2023-03-22T02:08:58.688Z,19.63
2023-03-22T02:11:32.191Z,19.30
2023-03-22T02:14:15.567Z,21.73
2023-03-22T02:17:29.854Z,22.47
2023-03-22T02:20:48.345Z,25.13
2023-03-22T02:24:01.100Z,30.03
2023-03-22T02:27:05.053Z,19.33
2023-03-22T02:29:45.127Z,19.67
2023-03-22T02:32:44.557Z,18.70
2023-03-22T02:35:29.825Z,18.10
2023-03-22T02:38:23.106Z,20.40
2023-03-22T02:40:59.906Z,20.07
2023-03-22T02:43:38.949Z,23.97
2023-03-22T02:46:11.244Z,21.40
2023-03-22T02:48:45.507Z,25.67
2023-03-22T02:51:19.564Z,20.43
2023-03-22T02:53:54.289Z,22.40
2023-03-22T02:56:27.363Z,23.00
2023-03-22T02:59:01.145Z,20.43
2023-03-22T03:01:33.278Z,20.20
2023-03-22T03:04:06.360Z,24.83
2023-03-22T03:06:40.074Z,30.30
2023-03-22T03:09:09.991Z,22.87
2023-03-22T03:11:39.983Z,23.40
2023-03-22T03:14:08.535Z,24.97
2023-03-22T03:16:37.316Z,19.87
2023-03-22T03:19:14.766Z,21.40
2023-03-22T03:21:51.523Z,23.50
2023-03-22T03:24:24.172Z,25.20
2023-03-22T03:27:00.149Z,19.50
2023-03-22T03:29:35.319Z,22.70
2023-03-22T03:32:08.028Z,25.57
2023-03-22T03:34:45.615Z,30.17
2023-03-22T03:37:18.654Z,23.00
2023-03-22T03:39:53.923Z,25.13
2023-03-22T03:42:27.098Z,26.00
2023-03-22T03:44:57.425Z,26.97
2023-03-22T03:47:27.108Z,20.10
2023-03-22T03:49:56.013Z,22.27
2023-03-22T03:52:26.234Z,23.27
2023-03-22T03:54:55.177Z,25.67
2023-03-22T03:57:31.076Z,22.47
2023-03-22T03:59:59.712Z,20.53
2023-03-22T04:02:51.926Z,22.90
2023-03-22T04:05:43.271Z,26.73
2023-03-22T04:08:11.793Z,25.23
2023-03-22T04:10:40.832Z,23.77
2023-03-22T04:13:11.013Z,31.73
2023-03-22T04:15:39.773Z,22.60
2023-03-22T04:18:13.581Z,25.43
2023-03-22T04:20:42.946Z,24.47
2023-03-22T04:23:11.602Z,24.27
2023-03-22T04:25:41.932Z,30.50
2023-03-22T04:28:14.799Z,20.20
2023-03-22T04:30:45.749Z,23.17
2023-03-22T04:33:39.333Z,23.50
2023-03-22T04:36:18.252Z,25.23
2023-03-22T04:39:02.215Z,23.77
2023-03-22T04:41:31.435Z,22.57
2023-03-22T04:44:03.277Z,26.93
2023-03-22T04:46:36.086Z,24.90
2023-03-22T04:49:07.585Z,28.60
2023-03-22T04:51:40.104Z,24.50
2023-03-22T04:54:24.965Z,28.53
2023-03-22T04:56:53.419Z,25.60
2023-03-22T04:59:26.299Z,25.50
2023-03-22T05:01:55.266Z,22.20
2023-03-22T05:04:28.596Z,26.77
2023-03-22T05:07:04.393Z,25.73
2023-03-22T05:09:43.624Z,24.67
2023-03-22T05:12:14.723Z,30.53
2023-03-22T05:14:51.462Z,33.03
2023-03-22T05:17:24.753Z,24.30
2023-03-22T05:19:57.452Z,34.03
2023-03-22T05:22:26.006Z,29.93
2023-03-22T05:24:56.590Z,25.10
2023-03-22T05:27:35.040Z,27.03
2023-03-22T05:30:23.356Z,31.47
2023-03-22T05:33:03.397Z,22.83
2023-03-22T05:35:37.640Z,24.80
2023-03-22T05:38:07.159Z,22.33
2023-03-22T05:40:38.496Z,25.77
2023-03-22T05:43:07.251Z,25.03
2023-03-22T05:45:38.672Z,24.33
2023-03-22T05:48:23.627Z,21.83
2023-03-22T05:50:52.360Z,24.07
2023-03-22T05:53:20.862Z,20.00
2023-03-22T05:55:57.739Z,28.03
2023-03-22T05:58:28.966Z,23.10
2023-03-22T06:01:01.042Z,26.53
2023-03-22T06:03:41.576Z,26.60
2023-03-22T06:06:21.270Z,21.90
2023-03-22T06:09:17.267Z,24.97
2023-03-22T06:11:49.808Z,21.50
2023-03-22T06:14:18.981Z,22.63
2023-03-22T06:17:12.109Z,22.20
2023-03-22T06:19:41.480Z,17.87
2023-03-22T06:22:11.655Z,18.87
2023-03-22T06:24:40.806Z,18.50
2023-03-22T06:27:11.997Z,18.57
2023-03-22T06:29:42.393Z,17.43
2023-03-22T06:32:12.515Z,18.37
2023-03-22T06:34:41.253Z,20.53
2023-03-22T06:37:12.763Z,18.77
2023-03-22T06:39:43.920Z,19.13
2023-03-22T06:42:12.682Z,22.43
2023-03-22T06:44:43.908Z,18.47
2023-03-22T06:47:20.052Z,20.30
2023-03-22T06:50:15.452Z,21.67
2023-03-22T06:53:16.225Z,19.30
2023-03-22T06:55:45.363Z,20.00
2023-03-22T06:58:19.764Z,16.63
2023-03-22T07:00:48.357Z,17.53
2023-03-22T07:03:20.433Z,19.67
2023-03-22T07:05:53.009Z,23.23
2023-03-22T07:08:21.524Z,17.97
2023-03-22T07:10:52.409Z,18.20
2023-03-22T07:13:24.667Z,21.50
2023-03-22T07:15:57.926Z,22.03
2023-03-22T07:18:41.090Z,15.93
2023-03-22T07:21:10.689Z,13.77
2023-03-22T07:23:41.941Z,19.20
2023-03-22T07:26:14.476Z,19.17
2023-03-22T07:28:46.260Z,15.73
2023-03-22T07:31:17.720Z,21.73
2023-03-22T07:34:00.092Z,21.83
2023-03-22T07:36:32.946Z,16.93
2023-03-22T07:39:02.778Z,18.77
2023-03-22T07:41:35.822Z,18.40
2023-03-22T07:44:24.514Z,18.20
2023-03-22T07:47:13.328Z,18.77
2023-03-22T07:49:55.687Z,20.43
2023-03-22T07:52:29.196Z,15.70
2023-03-22T07:54:59.656Z,16.10
2023-03-22T07:57:28.172Z,20.00
2023-03-22T08:00:00.820Z,18.60
2023-03-22T08:02:45.938Z,17.73
2023-03-22T08:05:30.013Z,18.23
2023-03-22T08:08:03.187Z,14.90
2023-03-22T08:10:32.914Z,13.37
2023-03-22T08:13:02.627Z,14.17
2023-03-22T08:15:31.956Z,20.23
2023-03-22T08:18:01.857Z,17.00
2023-03-22T08:20:38.376Z,21.77
2023-03-22T08:23:15.960Z,20.47
2023-03-22T08:26:13.675Z,20.10
2023-03-22T08:28:42.245Z,32.30
2023-03-22T08:31:14.715Z,24.53
2023-03-22T08:33:45.730Z,21.93
2023-03-22T08:36:18.447Z,32.13
2023-03-22T08:38:58.052Z,31.73
2023-03-22T08:41:38.296Z,27.53
2023-03-22T08:44:07.116Z,24.50
2023-03-22T08:46:36.987Z,27.70
2023-03-22T08:49:05.831Z,25.57
2023-03-22T08:51:41.427Z,26.13
2023-03-22T08:54:18.386Z,27.97
2023-03-22T08:57:08.366Z,26.57
2023-03-22T08:59:58.272Z,25.27
2023-03-22T09:02:47.994Z,28.50
2023-03-22T09:05:16.775Z,24.60
2023-03-22T09:07:46.836Z,27.00
2023-03-22T09:10:27.015Z,28.57
2023-03-22T09:12:55.485Z,23.27
2023-03-22T09:15:24.658Z,55.73
2023-03-22T09:18:09.051Z,31.43
2023-03-22T09:20:38.438Z,26.50
2023-03-22T09:23:09.919Z,36.50
2023-03-22T09:25:38.700Z,31.17
2023-03-22T09:28:07.760Z,37.00
2023-03-22T09:30:36.683Z,29.30
2023-03-22T09:33:07.786Z,27.43
2023-03-22T09:35:42.830Z,27.47
2023-03-22T09:38:16.221Z,22.17
2023-03-22T09:41:00.516Z,32.63
2023-03-22T09:43:34.883Z,32.13
2023-03-22T09:46:06.062Z,26.20
2023-03-22T09:48:38.650Z,27.07
2023-03-22T09:51:15.963Z,28.90
2023-03-22T09:53:45.788Z,28.20
2023-03-22T09:56:19.000Z,24.00
2023-03-22T09:58:53.653Z,26.40
2023-03-22T10:01:29.682Z,30.73
2023-03-22T10:04:33.801Z,27.67
2023-03-22T10:07:11.863Z,31.27
2023-03-22T10:09:54.787Z,29.03
2023-03-22T10:12:28.624Z,27.43
2023-03-22T10:15:05.154Z,31.53
2023-03-22T10:17:36.396Z,33.10
2023-03-22T10:20:10.386Z,26.17
2023-03-22T10:22:43.221Z,26.67
2023-03-22T10:25:20.070Z,34.03
2023-03-22T10:27:50.571Z,34.30
2023-03-22T10:30:23.116Z,30.33
2023-03-22T10:32:58.457Z,27.87
2023-03-22T10:35:27.323Z,26.03
2023-03-22T10:37:57.359Z,33.03
2023-03-22T10:40:30.550Z,29.80
2023-03-22T10:43:03.557Z,27.63
2023-03-22T10:45:34.861Z,34.03
2023-03-22T10:48:07.144Z,26.60
2023-03-22T10:50:39.165Z,31.17
2023-03-22T10:53:11.868Z,29.17
2023-03-22T10:55:43.388Z,33.53
2023-03-22T10:58:16.929Z,28.53
2023-03-22T11:00:47.347Z,25.00
2023-03-22T11:03:29.860Z,24.00
2023-03-22T11:06:04.364Z,21.70
2023-03-22T11:08:40.454Z,19.53
2023-03-22T11:11:18.420Z,18.23
2023-03-22T11:13:56.614Z,15.97
2023-03-22T11:16:25.457Z,16.77
2023-03-22T11:18:55.394Z,18.27
2023-03-22T11:21:30.011Z,20.00
2023-03-22T11:24:01.672Z,18.73
2023-03-22T11:26:38.803Z,16.93
2023-03-22T11:29:15.613Z,24.70
2023-03-22T11:31:57.290Z,21.30
2023-03-22T11:34:29.306Z,20.00
2023-03-22T11:37:01.675Z,21.33
2023-03-22T11:39:31.028Z,14.93
2023-03-22T11:42:04.049Z,15.67
2023-03-22T11:44:38.099Z,18.63
2023-03-22T11:47:09.737Z,17.03
2023-03-22T11:49:43.733Z,16.03
2023-03-22T11:52:17.747Z,14.10
2023-03-22T11:54:47.310Z,18.03
2023-03-22T11:57:21.634Z,15.23
2023-03-22T11:59:58.385Z,11.17
2023-03-22T12:02:29.587Z,18.30
2023-03-22T12:05:06.369Z,10.17
2023-03-22T12:07:37.631Z,10.90
2023-03-22T12:10:12.075Z,13.23
2023-03-22T12:12:46.976Z,14.20
2023-03-22T12:15:21.075Z,10.90
2023-03-22T12:17:56.922Z,15.97
2023-03-22T12:20:35.981Z,11.90
2023-03-22T12:23:15.015Z,11.80
2023-03-22T12:25:48.058Z,12.63
2023-03-22T12:28:21.529Z,9.57
2023-03-22T12:30:53.945Z,14.23
2023-03-22T12:33:26.860Z,11.23
2023-03-22T12:35:59.158Z,18.93
2023-03-22T12:38:34.076Z,14.37
2023-03-22T12:41:06.086Z,12.57
2023-03-22T12:43:48.024Z,11.17
2023-03-22T12:46:21.634Z,14.90
2023-03-22T12:48:54.384Z,13.77
2023-03-22T12:51:23.109Z,12.40
2023-03-22T12:53:54.460Z,11.10
2023-03-22T12:56:26.338Z,9.60
2023-03-22T12:59:00.230Z,10.43
2023-03-22T13:01:34.658Z,11.57
2023-03-22T13:04:47.940Z,15.60
2023-03-22T13:07:32.657Z,9.43
2023-03-22T13:10:02.429Z,11.13
2023-03-22T13:12:34.048Z,8.90
2023-03-22T13:15:23.830Z,9.97
2023-03-22T13:17:59.070Z,8.27
2023-03-22T13:20:34.298Z,6.73
2023-03-22T13:23:12.082Z,7.17
2023-03-22T13:26:00.826Z,12.93
2023-03-22T13:28:30.991Z,8.73
2023-03-22T13:31:01.608Z,9.10
2023-03-22T13:33:32.913Z,6.53
2023-03-22T13:36:08.500Z,6.10
2023-03-22T13:38:42.371Z,11.13
2023-03-22T13:41:23.231Z,10.83
2023-03-22T13:43:55.330Z,5.70
2023-03-22T13:46:46.848Z,9.60
2023-03-22T13:49:44.630Z,11.73
2023-03-22T13:52:26.562Z,7.10
2023-03-22T13:54:58.380Z,8.77
2023-03-22T13:57:45.581Z,9.87
2023-03-22T14:00:35.428Z,7.10
2023-03-22T14:03:09.751Z,8.83
2023-03-22T14:05:39.670Z,9.63
2023-03-22T14:08:19.486Z,7.43
2023-03-22T14:10:52.186Z,14.10
2023-03-22T14:13:26.865Z,9.50
2023-03-22T14:15:58.612Z,7.87
2023-03-22T14:18:31.551Z,8.73
2023-03-22T14:21:02.516Z,11.13
